Time;durP1;ratioP1;P1;durP2;ratioP2;P2;SDS_P1;SDS_P2;PMS_P1;PMS_P2;Temp;Humidity;BMP_temperature;BMP_pressure;BME280_temperature;BME280_humidity;BME280_pressure;Samples;Min_cycle;Max_cycle;Signal;HPM_P1;HPM_P2
2023/07/13 14:22:20;;;;;;;;;4.67;4.67;;;;;20.19;100.00;98313.97;4951846;28;107708;-81
2023/07/13 14:24:59;;;;;;;;;5.67;5.00;;;;;20.09;100.00;98300.22;4949515;28;105953;-82
2023/07/13 14:27:47;;;;;;;;;5.00;5.00;;;;;20.15;100.00;98310.13;4948434;28;101673;-82
2023/07/13 14:30:34;;;;;;;;;6.67;6.33;;;;;20.03;100.00;98299.41;4950802;28;102375;-81
2023/07/13 14:33:21;;;;;;;;;6.00;5.67;;;;;20.08;99.33;98296.66;4949037;28;106108;-80
2023/07/13 14:36:23;;;;;;;;;7.00;7.00;;;;;19.93;99.65;98294.69;4949123;28;101711;-80
2023/07/13 14:39:16;;;;;;;;;6.33;5.67;;;;;20.17;99.97;98297.78;4950586;28;101780;-80
2023/07/13 14:41:56;;;;;;;;;4.33;3.67;;;;;20.34;100.00;98276.44;4952207;28;102059;-80
2023/07/13 14:44:31;;;;;;;;;3.67;3.00;;;;;20.73;100.00;98290.50;4936387;28;107790;-81
2023/07/13 14:47:01;;;;;;;;;3.00;3.00;;;;;21.07;100.00;98281.69;4933652;28;102669;-80
2023/07/13 14:49:30;;;;;;;;;5.67;4.33;;;;;21.20;96.18;98282.00;4942244;28;102289;-81
2023/07/13 14:52:05;;;;;;;;;5.00;4.00;;;;;21.24;96.56;98268.50;4947014;28;101904;-82
2023/07/13 14:54:32;;;;;;;;;4.33;4.33;;;;;21.38;92.69;98275.06;4941410;28;107356;-82
2023/07/13 14:57:01;;;;;;;;;5.00;4.33;;;;;21.01;89.17;98288.28;4933037;28;101991;-82
2023/07/13 14:59:28;;;;;;;;;4.33;4.00;;;;;20.70;89.45;98284.72;4951797;28;101638;-82
2023/07/13 15:01:55;;;;;;;;;5.00;4.00;;;;;20.64;90.08;98302.28;4916673;28;101552;-81
2023/07/13 15:04:22;;;;;;;;;4.00;3.33;;;;;20.66;91.95;98313.84;4911666;28;103213;-82
2023/07/13 15:06:53;;;;;;;;;3.00;3.00;;;;;20.57;91.44;98299.00;4915863;28;101713;-82
2023/07/13 15:09:20;;;;;;;;;4.00;4.00;;;;;20.55;90.99;98292.94;4943527;28;101981;-83
2023/07/13 15:11:47;;;;;;;;;4.00;3.00;;;;;20.59;90.17;98300.38;4951928;28;101829;-82
2023/07/13 15:14:14;;;;;;;;;3.00;2.00;;;;;20.70;91.49;98301.22;4946069;28;103341;-83
2023/07/13 15:16:41;;;;;;;;;3.00;3.00;;;;;20.66;92.65;98300.94;4936621;28;101716;-80
2023/07/13 15:19:10;;;;;;;;;2.00;2.00;;;;;20.62;91.34;98282.53;4938847;28;101526;-81
2023/07/13 15:21:37;;;;;;;;;1.00;1.00;;;;;20.84;92.54;98286.66;4949688;28;101619;-80
2023/07/13 15:24:08;;;;;;;;;2.67;2.67;;;;;20.69;91.03;98305.88;4947287;28;103355;-81
2023/07/13 15:26:35;;;;;;;;;2.00;2.00;;;;;20.71;92.80;98298.19;4931925;28;101570;-82
2023/07/13 15:29:02;;;;;;;;;2.67;2.67;;;;;20.70;92.17;98288.31;4935545;28;101781;-81
2023/07/13 15:31:31;;;;;;;;;4.00;3.00;;;;;20.62;93.52;98299.84;4949954;28;101657;-85
2023/07/13 15:33:59;;;;;;;;;5.67;5.00;;;;;20.33;92.80;98291.25;4923670;28;103626;-81
2023/07/13 15:36:27;;;;;;;;;2.33;2.33;;;;;20.30;94.37;98274.50;4944502;28;101690;-81
2023/07/13 15:38:55;;;;;;;;;4.00;3.33;;;;;20.56;92.91;98300.09;4942435;28;102163;-82
2023/07/13 15:41:28;;;;;;;;;3.00;3.00;;;;;20.59;94.47;98294.88;4922453;28;101838;-83
2023/07/13 15:43:59;;;;;;;;;0.67;0.67;;;;;20.61;92.31;98291.88;4930830;28;106771;-81
2023/07/13 15:46:28;;;;;;;;;2.00;2.00;;;;;20.63;94.14;98301.47;4949904;28;102308;-81
2023/07/13 15:48:57;;;;;;;;;4.00;3.00;;;;;20.76;95.30;98300.94;4941752;28;102198;-81
2023/07/13 15:51:29;;;;;;;;;2.00;2.00;;;;;20.85;94.58;98301.19;4946873;28;102039;-81
2023/07/13 15:54:08;;;;;;;;;4.00;3.33;;;;;20.83;93.30;98303.41;4949180;28;107979;-82
2023/07/13 15:56:37;;;;;;;;;2.33;2.33;;;;;20.70;95.67;98307.53;4948082;28;101826;-81
2023/07/13 15:59:05;;;;;;;;;3.00;3.00;;;;;20.66;95.27;98300.13;4945974;28;101929;-81
2023/07/13 16:01:32;;;;;;;;;3.00;2.00;;;;;20.61;93.42;98311.91;4931588;28;101595;-80
2023/07/13 16:03:59;;;;;;;;;3.33;3.00;;;;;20.57;92.97;98312.75;4945192;28;103799;-81
2023/07/13 16:06:34;;;;;;;;;4.00;4.00;;;;;20.42;93.74;98310.78;4947194;28;101858;-80
2023/07/13 16:09:03;;;;;;;;;3.00;3.00;;;;;20.46;95.20;98307.22;4926270;28;103179;-82
2023/07/13 16:11:37;;;;;;;;;2.00;2.00;;;;;20.47;94.75;98295.16;4946046;28;101584;-80
2023/07/13 16:14:06;;;;;;;;;1.67;1.67;;;;;20.67;95.51;98307.25;4947592;28;106327;-81
2023/07/13 16:16:55;;;;;;;;;3.00;3.00;;;;;20.61;91.06;98289.13;4946105;28;102218;-81
2023/07/13 16:19:28;;;;;;;;;4.67;4.00;;;;;20.80;90.25;98314.97;4948188;28;101543;-80
2023/07/13 16:21:57;;;;;;;;;2.67;2.67;;;;;20.99;92.50;98310.56;4952542;28;103085;-81
2023/07/13 16:24:25;;;;;;;;;5.00;4.00;;;;;21.13;89.95;98310.84;4954338;28;107521;-80
2023/07/13 16:26:55;;;;;;;;;4.00;3.00;;;;;21.25;86.33;98316.91;4934578;28;102051;-82
2023/07/13 16:29:25;;;;;;;;;4.00;4.00;;;;;21.23;85.21;98319.94;4944252;28;101932;-81
2023/07/13 16:35:59;;;;;;;;;1.67;1.67;;;;;21.56;84.85;98310.25;4931167;28;106434;-81
2023/07/13 16:38:34;;;;;;;;;2.00;1.00;;;;;21.69;82.83;98315.16;4935136;28;101840;-82
2023/07/13 16:41:01;;;;;;;;;1.33;1.33;;;;;21.73;82.32;98316.25;4929178;28;101962;-82
2023/07/13 16:43:28;;;;;;;;;1.00;1.00;;;;;21.78;82.95;98318.16;4951161;28;102972;-81
2023/07/13 16:46:01;;;;;;;;;2.00;2.00;;;;;21.73;80.92;98320.94;4949923;28;103674;-82
2023/07/13 16:48:29;;;;;;;;;2.33;2.33;;;;;21.77;81.84;98319.25;4947468;28;102673;-81
2023/07/13 16:50:57;;;;;;;;;1.00;1.00;;;;;21.81;81.70;98323.09;4948429;28;101997;-82
2023/07/13 16:53:27;;;;;;;;;1.00;1.00;;;;;21.80;81.94;98327.78;4941804;28;102238;-82
2023/07/13 16:55:56;;;;;;;;;1.00;1.00;;;;;21.67;82.18;98330.28;4938705;28;107965;-83
2023/07/13 16:58:25;;;;;;;;;0.00;0.00;;;;;21.68;84.20;98338.28;4938283;28;101623;-82
2023/07/13 17:00:52;;;;;;;;;2.67;1.00;;;;;21.41;79.70;98317.69;4908715;28;101554;-82
2023/07/13 17:03:20;;;;;;;;;2.00;1.00;;;;;21.48;83.00;98329.25;4945695;28;102727;-82
2023/07/13 17:05:48;;;;;;;;;1.00;1.00;;;;;21.57;85.32;98333.88;4925410;28;103319;-83
2023/07/13 17:08:20;;;;;;;;;1.33;1.00;;;;;21.57;85.57;98341.34;4911465;28;103035;-81
2023/07/13 17:10:54;;;;;;;;;1.00;1.00;;;;;21.50;81.19;98316.03;4933349;28;101909;-80
2023/07/13 17:13:24;;;;;;;;;1.00;1.00;;;;;21.50;83.57;98335.28;4943877;28;102161;-82
2023/07/13 17:15:56;;;;;;;;;1.00;1.00;;;;;21.52;84.60;98331.19;4925403;28;103829;-80
2023/07/13 17:18:24;;;;;;;;;1.00;1.00;;;;;21.53;82.29;98320.97;4946376;28;101742;-80
2023/07/13 17:20:52;;;;;;;;;0.33;0.33;;;;;21.54;82.03;98320.69;4950148;28;101832;-80
2023/07/13 17:23:23;;;;;;;;;1.00;0.33;;;;;21.54;83.43;98328.94;4951512;28;101889;-80
2023/07/13 17:25:55;;;;;;;;;2.00;1.33;;;;;21.56;82.93;98325.94;4948362;28;103763;-80
2023/07/13 17:28:23;;;;;;;;;1.67;1.67;;;;;21.52;84.08;98327.59;4949640;28;101536;-80
2023/07/13 17:30:52;;;;;;;;;1.00;1.00;;;;;21.48;82.75;98334.75;4951226;28;103048;-80
2023/07/13 17:33:27;;;;;;;;;1.67;1.67;;;;;21.43;82.42;98341.09;4949294;28;102166;-80
2023/07/13 17:35:59;;;;;;;;;1.00;1.00;;;;;21.42;82.61;98342.19;4951467;28;103352;-80
2023/07/13 17:38:39;;;;;;;;;1.00;1.00;;;;;21.40;82.78;98354.56;4950943;28;101681;-80
2023/07/13 17:41:08;;;;;;;;;1.00;0.00;;;;;21.38;82.86;98352.09;4948781;28;101767;-80
2023/07/13 17:43:35;;;;;;;;;1.00;1.00;;;;;21.32;83.50;98354.03;4950033;28;102998;-82
2023/07/13 17:46:03;;;;;;;;;1.33;1.33;;;;;21.15;86.06;98319.66;4952965;28;103344;-79
2023/07/13 17:48:30;;;;;;;;;0.67;0.67;;;;;21.26;84.35;98357.03;4953304;28;102040;-80
2023/07/13 17:50:59;;;;;;;;;1.00;1.00;;;;;21.10;83.91;98339.72;4950622;28;101697;-79
2023/07/13 17:53:26;;;;;;;;;1.33;1.00;;;;;21.20;85.04;98347.16;4947829;28;101969;-80
2023/07/13 17:55:53;;;;;;;;;2.00;1.00;;;;;21.18;88.76;98346.59;4946748;28;103254;-79
2023/07/13 17:58:21;;;;;;;;;1.33;1.33;;;;;20.95;87.44;98336.94;4949766;28;101896;-80
2023/07/13 18:00:49;;;;;;;;;2.00;2.00;;;;;20.90;90.60;98343.25;4947000;28;101854;-79
2023/07/13 18:03:21;;;;;;;;;1.00;1.00;;;;;20.94;91.43;98357.28;4948572;28;101957;-79
2023/07/13 18:05:49;;;;;;;;;1.00;1.00;;;;;20.89;92.84;98358.09;4945993;28;103356;-79
2023/07/13 18:08:29;;;;;;;;;2.00;2.00;;;;;20.74;91.25;98368.25;4948533;28;101951;-80
2023/07/13 18:10:58;;;;;;;;;1.00;1.00;;;;;20.56;91.42;98327.56;4929675;28;101746;-79
2023/07/13 18:13:29;;;;;;;;;2.00;2.00;;;;;20.58;88.89;98350.91;4951289;28;101706;-79
2023/07/13 18:15:58;;;;;;;;;1.00;1.00;;;;;20.61;93.98;98364.13;4930578;28;103599;-79
2023/07/13 18:18:27;;;;;;;;;2.00;2.00;;;;;20.62;92.34;98367.69;4949779;28;101821;-80
2023/07/13 18:20:54;;;;;;;;;1.00;1.00;;;;;20.55;92.71;98370.69;4947487;28;102078;-79
2023/07/13 18:23:23;;;;;;;;;1.00;1.00;;;;;20.44;93.14;98364.34;4950026;28;101835;-79
2023/07/13 18:29:38;;;;;;;;;0.67;0.67;;;;;20.20;95.29;98374.13;4945574;28;101863;-79
2023/07/13 18:32:09;;;;;;;;;1.67;1.67;;;;;20.15;96.25;98371.34;4948641;28;102070;-78
2023/07/13 18:34:42;;;;;;;;;0.67;0.67;;;;;20.08;97.17;98394.66;4948354;28;101599;-79
2023/07/13 18:37:18;;;;;;;;;0.67;0.67;;;;;19.91;97.36;98386.59;4945540;28;108479;-80
2023/07/13 18:39:50;;;;;;;;;0.00;0.00;;;;;19.85;97.83;98401.41;4948778;28;101656;-79
2023/07/13 18:42:19;;;;;;;;;0.33;0.33;;;;;19.59;98.53;98390.25;4949877;28;101854;-79
2023/07/13 18:44:46;;;;;;;;;0.67;0.67;;;;;19.51;99.65;98403.63;4942284;28;106468;-79
2023/07/13 18:47:22;;;;;;;;;2.00;2.00;;;;;19.40;99.40;98397.22;4949809;28;103314;-79
2023/07/13 18:49:54;;;;;;;;;1.00;1.00;;;;;19.29;100.00;98397.41;4935387;28;101981;-79
2023/07/13 18:52:23;;;;;;;;;0.67;0.67;;;;;19.21;100.00;98395.16;4930008;28;102379;-79
2023/07/13 18:54:51;;;;;;;;;2.00;1.67;;;;;19.12;100.00;98392.06;4936891;28;101936;-78
2023/07/13 18:57:18;;;;;;;;;1.00;1.00;;;;;19.01;100.00;98376.59;4947343;28;103555;-78
2023/07/13 18:59:46;;;;;;;;;2.00;2.00;;;;;18.95;100.00;98383.16;4948275;28;101771;-79
2023/07/13 19:02:14;;;;;;;;;1.67;1.67;;;;;18.81;100.00;98374.53;4948482;28;101735;-80
2023/07/13 19:04:41;;;;;;;;;3.00;2.33;;;;;18.89;100.00;98403.34;4950122;28;101986;-79
2023/07/13 19:07:11;;;;;;;;;3.00;3.00;;;;;18.79;100.00;98408.72;4945886;28;103339;-79
2023/07/13 19:09:40;;;;;;;;;5.00;5.00;;;;;18.70;100.00;98405.63;4949752;28;101514;-80
2023/07/13 19:12:30;;;;;;;;;4.00;3.33;;;;;18.64;100.00;98407.47;4932350;28;101828;-79
2023/07/13 19:14:57;;;;;;;;;2.33;2.33;;;;;18.46;100.00;98385.09;4952391;28;102115;-80
2023/07/13 19:17:24;;;;;;;;;4.00;4.00;;;;;18.49;100.00;98401.81;4944502;28;102655;-79
2023/07/13 19:19:51;;;;;;;;;1.00;1.00;;;;;18.47;100.00;98412.19;4949706;28;101634;-80
2023/07/13 19:22:19;;;;;;;;;2.67;2.67;;;;;18.30;100.00;98392.28;4939317;28;101934;-79
2023/07/13 19:24:48;;;;;;;;;7.00;6.00;;;;;18.10;100.00;98375.63;4945559;28;102061;-78
2023/07/13 19:27:36;;;;;;;;;4.00;3.00;;;;;18.29;100.00;98413.34;4947311;28;104138;-79
2023/07/13 19:30:05;;;;;;;;;5.00;4.33;;;;;18.29;100.00;98418.81;4950430;28;101804;-80
2023/07/13 19:32:32;;;;;;;;;3.00;2.00;;;;;18.16;100.00;98396.47;4945742;28;101659;-79
2023/07/13 19:35:00;;;;;;;;;4.67;4.00;;;;;18.23;100.00;98424.50;4950179;28;101757;-79
2023/07/13 19:37:27;;;;;;;;;2.33;2.33;;;;;18.08;100.00;98419.66;4949125;28;103492;-79
2023/07/13 19:39:54;;;;;;;;;8.33;6.00;;;;;17.95;100.00;98421.94;4949871;28;101828;-79
2023/07/13 19:42:23;;;;;;;;;4.00;4.00;;;;;17.89;100.00;98411.97;4948643;28;101843;-79
2023/07/13 19:44:54;;;;;;;;;4.00;4.00;;;;;17.92;100.00;98415.03;4951508;28;101697;-79
2023/07/13 19:51:20;;;;;;;;;3.67;3.67;;;;;17.96;100.00;98420.84;4937951;28;111024;-79
2023/07/13 19:53:54;;;;;;;;;5.33;4.00;;;;;17.95;100.00;98416.47;4940830;28;102915;-78
2023/07/13 19:56:22;;;;;;;;;3.00;2.00;;;;;17.91;100.00;98420.78;4937515;28;102278;-78
2023/07/13 19:58:50;;;;;;;;;3.67;3.00;;;;;17.73;100.00;98405.50;4944466;28;103395;-79
2023/07/13 20:01:17;;;;;;;;;2.00;2.00;;;;;17.71;100.00;98419.41;4941648;28;101991;-79
2023/07/13 20:03:44;;;;;;;;;2.33;2.00;;;;;17.72;100.00;98440.22;4943513;28;101711;-79
2023/07/13 20:06:26;;;;;;;;;2.33;2.00;;;;;17.67;100.00;98445.59;4943697;28;102011;-79
2023/07/13 20:08:53;;;;;;;;;2.67;2.00;;;;;17.64;100.00;98443.38;4942346;28;108235;-78
2023/07/13 20:11:20;;;;;;;;;3.00;2.33;;;;;17.58;100.00;98427.09;4948832;28;102070;-79
2023/07/13 20:13:47;;;;;;;;;4.00;3.33;;;;;17.64;100.00;98437.91;4950063;28;101834;-79
2023/07/13 20:16:15;;;;;;;;;1.33;1.33;;;;;17.61;100.00;98432.91;4953819;28;102098;-79
2023/07/13 20:18:42;;;;;;;;;3.33;2.67;;;;;17.60;100.00;98435.91;4949485;28;107777;-79
2023/07/13 20:21:11;;;;;;;;;3.67;3.67;;;;;17.65;100.00;98444.22;4949720;28;102345;-79
2023/07/13 20:23:39;;;;;;;;;3.00;3.00;;;;;17.67;100.00;98456.53;4943866;28;102149;-79
2023/07/13 20:26:08;;;;;;;;;3.00;2.33;;;;;17.57;100.00;98441.84;4950826;28;101938;-79
2023/07/13 20:28:38;;;;;;;;;3.00;3.00;;;;;17.61;100.00;98443.03;4954324;28;104723;-79
2023/07/13 20:31:14;;;;;;;;;3.00;3.00;;;;;17.62;100.00;98450.16;4951590;28;101939;-79
2023/07/13 20:33:41;;;;;;;;;3.00;3.00;;;;;17.64;100.00;98448.00;4934438;28;103222;-79
2023/07/13 20:36:11;;;;;;;;;2.67;2.00;;;;;17.39;100.00;98408.22;4953269;28;102528;-78
2023/07/13 20:38:40;;;;;;;;;3.00;3.00;;;;;17.60;100.00;98458.63;4946544;28;103526;-79
2023/07/13 20:41:12;;;;;;;;;3.00;3.00;;;;;17.56;100.00;98456.59;4931343;28;101778;-78
2023/07/13 20:43:39;;;;;;;;;2.00;2.00;;;;;17.51;100.00;98454.63;4943054;28;102124;-79
2023/07/13 20:46:14;;;;;;;;;4.67;4.33;;;;;17.42;100.00;98453.38;4951913;28;102777;-79
2023/07/13 20:48:50;;;;;;;;;4.00;4.00;;;;;17.37;100.00;98450.56;4950271;28;109697;-80
2023/07/13 20:51:19;;;;;;;;;7.00;5.00;;;;;17.37;100.00;98453.28;4948241;28;101745;-78
2023/07/13 20:53:46;;;;;;;;;2.00;2.00;;;;;17.33;100.00;98452.13;4934207;28;101732;-79
2023/07/13 20:56:18;;;;;;;;;4.00;3.33;;;;;17.31;100.00;98446.06;4930263;28;101916;-79
2023/07/13 20:58:47;;;;;;;;;4.67;4.67;;;;;17.20;100.00;98436.06;4946970;28;107862;-79
2023/07/13 21:01:25;;;;;;;;;3.67;3.00;;;;;17.30;100.00;98463.53;4947373;28;101528;-79
2023/07/13 21:03:56;;;;;;;;;7.00;6.00;;;;;17.26;100.00;98463.22;4947087;28;101681;-79
2023/07/13 21:06:32;;;;;;;;;4.00;3.67;;;;;17.12;100.00;98450.94;4938597;28;102540;-80
2023/07/13 21:08:59;;;;;;;;;5.00;4.00;;;;;17.17;100.00;98461.13;4949184;28;103755;-79
2023/07/13 21:11:27;;;;;;;;;4.00;4.00;;;;;17.13;100.00;98462.69;4947177;28;102221;-79
2023/07/13 21:13:55;;;;;;;;;5.33;3.67;;;;;17.20;100.00;98469.66;4951564;28;101593;-77
2023/07/13 21:16:26;;;;;;;;;3.00;2.00;;;;;17.18;100.00;98473.72;4934729;28;101613;-79
2023/07/13 21:18:54;;;;;;;;;2.33;2.33;;;;;17.18;100.00;98469.09;4948257;28;103723;-79
2023/07/13 21:21:23;;;;;;;;;2.00;2.00;;;;;17.10;100.00;98460.47;4951139;28;102286;-79
2023/07/13 21:23:51;;;;;;;;;3.33;3.00;;;;;17.06;100.00;98475.69;4950454;28;101573;-77
2023/07/13 21:26:20;;;;;;;;;3.00;3.00;;;;;17.06;100.00;98479.25;4953380;28;102105;-79
2023/07/13 21:28:48;;;;;;;;;4.67;4.00;;;;;17.04;100.00;98480.56;4935470;28;102751;-79
2023/07/13 21:31:28;;;;;;;;;3.00;3.00;;;;;17.03;100.00;98490.66;4940655;28;101924;-78
2023/07/13 21:34:04;;;;;;;;;3.33;3.33;;;;;16.91;100.00;98471.63;4948912;28;101512;-78
2023/07/13 21:36:31;;;;;;;;;3.00;2.00;;;;;16.95;100.00;98489.16;4943102;28;101815;-78
2023/07/13 21:39:01;;;;;;;;;2.00;2.00;;;;;16.93;100.00;98490.50;4962250;28;103485;-78
2023/07/13 21:41:34;;;;;;;;;3.00;3.00;;;;;16.90;100.00;98480.03;4951515;28;101576;-79
2023/07/13 21:44:12;;;;;;;;;3.33;2.33;;;;;16.85;100.00;98478.03;4950795;28;103485;-79
2023/07/13 21:46:39;;;;;;;;;5.00;4.00;;;;;16.86;100.00;98478.88;4933732;28;101767;-78
2023/07/13 21:49:06;;;;;;;;;8.00;8.00;;;;;16.77;100.00;98459.31;4949439;28;103418;-78
2023/07/13 21:51:34;;;;;;;;;21.25;17.25;;;;;16.76;100.00;98460.38;4947992;28;102706;-78
2023/07/13 21:54:01;;;;;;;;;15.25;15.00;;;;;16.76;100.00;98468.59;4929098;28;101599;-78
2023/07/13 21:56:28;;;;;;;;;10.50;10.50;;;;;16.76;100.00;98467.75;4952511;28;102919;-78
2023/07/13 21:58:55;;;;;;;;;9.00;9.00;;;;;16.66;100.00;98468.38;4948762;28;103290;-78
2023/07/13 22:01:28;;;;;;;;;9.00;9.00;;;;;16.59;100.00;98477.78;4949534;28;101658;-78
2023/07/13 22:03:57;;;;;;;;;6.00;6.00;;;;;16.59;100.00;98477.78;4949846;28;101548;-78
2023/07/13 22:06:30;;;;;;;;;7.00;7.00;;;;;16.58;100.00;98471.50;4952693;28;102178;-79
2023/07/13 22:08:57;;;;;;;;;7.00;6.00;;;;;16.53;100.00;98464.00;4948575;28;103070;-78
2023/07/13 22:11:25;;;;;;;;;5.00;4.33;;;;;16.52;100.00;98469.72;4949319;28;102419;-79
2023/07/13 22:13:53;;;;;;;;;4.00;4.00;;;;;16.50;100.00;98474.59;4950105;28;101684;-78
2023/07/13 22:16:23;;;;;;;;;3.00;3.00;;;;;16.49;100.00;98475.66;4948448;28;102242;-79
2023/07/13 22:18:58;;;;;;;;;2.00;2.00;;;;;16.31;100.00;98459.44;4950365;28;103613;-78
2023/07/13 22:21:26;;;;;;;;;3.00;3.00;;;;;16.37;100.00;98474.88;4948641;28;102280;-78
2023/07/13 22:23:53;;;;;;;;;3.00;2.33;;;;;16.22;100.00;98466.34;4950759;28;102035;-79
2023/07/13 22:26:27;;;;;;;;;3.00;3.00;;;;;16.22;100.00;98466.34;4950986;28;101731;-78
2023/07/13 22:28:57;;;;;;;;;2.00;2.00;;;;;16.20;100.00;98487.59;4926897;28;103786;-80
2023/07/13 22:31:27;;;;;;;;;2.33;2.00;;;;;16.12;100.00;98483.31;4950387;28;101583;-79
2023/07/13 22:33:56;;;;;;;;;2.00;2.00;;;;;16.05;100.00;98477.16;4950991;28;101492;-79
2023/07/13 22:36:23;;;;;;;;;1.00;1.00;;;;;16.04;100.00;98481.78;4951106;28;101670;-78
2023/07/13 22:38:53;;;;;;;;;3.67;2.00;;;;;15.97;100.00;98472.91;4951947;28;103651;-78
2023/07/13 22:41:34;;;;;;;;;3.00;3.00;;;;;15.98;100.00;98482.78;4839283;28;101731;-78
2023/07/13 22:44:01;;;;;;;;;4.00;4.00;;;;;16.04;100.00;98487.25;4850714;28;102319;-78
2023/07/13 22:46:31;;;;;;;;;1.00;1.00;;;;;15.96;100.00;98468.53;4852765;28;101978;-79
2023/07/13 22:49:04;;;;;;;;;4.33;4.00;;;;;16.01;100.00;98485.00;4851605;28;103353;-79
2023/07/13 22:51:31;;;;;;;;;6.00;5.00;;;;;16.02;100.00;98488.56;4850877;29;102122;-78
2023/07/13 22:53:58;;;;;;;;;4.00;3.33;;;;;16.03;100.00;98488.31;4852212;28;101579;-78
2023/07/13 22:56:25;;;;;;;;;2.67;2.67;;;;;16.01;100.00;98482.28;4850660;28;101599;-79
2023/07/13 22:58:53;;;;;;;;;3.67;3.67;;;;;15.89;100.00;98481.47;4835967;28;103333;-78
2023/07/13 23:01:23;;;;;;;;;6.00;6.00;;;;;15.80;100.00;98479.34;4851008;28;101562;-78
2023/07/13 23:03:52;;;;;;;;;5.00;5.00;;;;;15.82;100.00;98478.03;4851035;28;101547;-79
2023/07/13 23:06:26;;;;;;;;;3.67;3.67;;;;;15.84;100.00;98477.78;4852813;28;101793;-77
2023/07/13 23:08:53;;;;;;;;;5.67;5.67;;;;;15.74;100.00;98459.31;4851636;28;103314;-78
2023/07/13 23:11:24;;;;;;;;;4.67;4.00;;;;;15.79;100.00;98467.59;4852761;28;101729;-79
2023/07/13 23:13:51;;;;;;;;;5.00;4.00;;;;;15.82;100.00;98479.91;4947489;28;101747;-78
2023/07/13 23:16:21;;;;;;;;;2.33;2.33;;;;;15.63;100.00;98462.84;4949995;28;102577;-79
2023/07/13 23:18:49;;;;;;;;;3.00;3.00;;;;;15.69;100.00;98478.25;4949098;28;103580;-79
2023/07/13 23:21:19;;;;;;;;;3.67;3.67;;;;;15.75;100.00;98480.03;4945730;28;102015;-78
2023/07/13 23:23:47;;;;;;;;;3.00;3.00;;;;;15.70;100.00;98484.53;4951433;28;101626;-78
2023/07/13 23:26:17;;;;;;;;;2.33;2.33;;;;;15.66;100.00;98475.19;4954060;28;101709;-78
2023/07/13 23:28:46;;;;;;;;;3.67;3.00;;;;;15.71;100.00;98492.50;4951076;28;107803;-79
2023/07/13 23:31:22;;;;;;;;;4.00;4.00;;;;;15.59;100.00;98467.94;4953764;28;101903;-78
2023/07/13 23:33:51;;;;;;;;;3.00;3.00;;;;;15.59;100.00;98464.38;4949169;28;101973;-79
2023/07/13 23:36:19;;;;;;;;;3.00;2.67;;;;;15.70;100.00;98490.00;4953941;28;101615;-78
2023/07/13 23:38:47;;;;;;;;;2.00;2.00;;;;;15.65;100.00;98492.59;4936819;28;108022;-79
2023/07/13 23:41:19;;;;;;;;;2.00;2.00;;;;;15.56;100.00;98486.66;4953639;28;101517;-78
2023/07/13 23:43:47;;;;;;;;;3.00;2.33;;;;;15.63;100.00;98490.09;4953478;28;101890;-78
2023/07/13 23:46:26;;;;;;;;;2.00;2.00;;;;;15.61;100.00;98497.69;4952601;28;101630;-78
2023/07/13 23:49:30;;;;;;;;;3.67;3.67;;;;;15.61;100.00;98503.16;4958408;28;107937;-79
2023/07/13 23:52:01;;;;;;;;;1.00;1.00;;;;;15.60;100.00;98502.31;4948164;28;104361;-78
2023/07/13 23:54:30;;;;;;;;;4.00;4.00;;;;;15.56;100.00;98505.75;4951364;28;101738;-79
2023/07/13 23:56:58;;;;;;;;;4.00;4.00;;;;;15.40;100.00;98484.63;4950005;28;102039;-79
2023/07/13 23:59:25;;;;;;;;;6.00;5.00;;;;;15.54;100.00;98502.41;4948406;28;102709;-79
